createdAt,value
2019-03-21T00:02:07.945Z,100638.84
2019-03-21T00:04:37.392Z,100648.48
2019-03-21T00:07:06.817Z,100650.14
2019-03-21T00:09:37.524Z,100648.34
2019-03-21T00:12:11.719Z,100641.83
2019-03-21T00:14:48.832Z,100641.42
2019-03-21T00:17:40.489Z,100633.75
2019-03-21T00:20:16.396Z,100637.55
2019-03-21T00:22:45.905Z,100640.23
2019-03-21T00:25:25.141Z,100640.06
2019-03-21T00:27:54.582Z,100641.27
2019-03-21T00:30:26.330Z,100642.09
2019-03-21T00:32:57.056Z,100645.98
2019-03-21T00:35:26.487Z,100644.39
2019-03-21T00:37:55.914Z,100643.81
2019-03-21T00:40:38.731Z,100641.09
2019-03-21T00:43:11.375Z,100638.14
2019-03-21T00:45:40.818Z,100642.78
2019-03-21T00:48:14.996Z,100637.77
2019-03-21T00:50:44.434Z,100643.50
2019-03-21T00:53:13.865Z,100645.28
2019-03-21T00:55:50.592Z,100642.27
2019-03-21T00:58:20.027Z,100641.47
2019-03-21T01:00:56.907Z,100642.39
2019-03-21T01:03:26.601Z,100636.34
2019-03-21T01:05:56.050Z,100639.51
2019-03-21T01:08:25.478Z,100638.79
2019-03-21T01:10:54.918Z,100630.37
2019-03-21T01:13:28.417Z,100635.03
2019-03-21T01:15:57.864Z,100630.72
2019-03-21T01:18:27.367Z,100628.83
2019-03-21T01:20:56.810Z,100630.95
2019-03-21T01:23:26.233Z,100631.84
2019-03-21T01:26:05.829Z,100626.20
2019-03-21T01:28:35.260Z,100627.48
2019-03-21T01:31:04.786Z,100624.14
2019-03-21T01:33:34.204Z,100624.05
2019-03-21T01:36:05.854Z,100625.39
2019-03-21T01:38:35.283Z,100619.53
2019-03-21T01:41:17.878Z,100622.92
2019-03-21T01:43:47.304Z,100620.73
2019-03-21T01:46:22.885Z,100615.55
2019-03-21T01:48:52.323Z,100619.73
2019-03-21T01:51:21.752Z,100614.49
2019-03-21T01:53:51.700Z,100613.97
2019-03-21T01:56:21.133Z,100614.94
2019-03-21T01:58:51.084Z,100614.86
2019-03-21T02:01:20.519Z,100611.34
2019-03-21T02:03:49.947Z,100608.34
2019-03-21T02:06:19.641Z,100604.56
2019-03-21T02:08:49.070Z,100603.66
2019-03-21T02:11:18.506Z,100609.17
2019-03-21T02:13:47.931Z,100608.61
2019-03-21T02:16:17.373Z,100602.84
2019-03-21T02:18:46.801Z,100604.58
2019-03-21T02:21:16.249Z,100601.13
2019-03-21T02:23:45.681Z,100595.89
2019-03-21T02:26:15.125Z,100598.73
2019-03-21T02:28:44.559Z,100601.67
2019-03-21T02:31:13.982Z,100600.94
2019-03-21T02:33:45.678Z,100601.88
2019-03-21T02:36:15.371Z,100600.59
2019-03-21T02:38:44.806Z,100605.06
2019-03-21T02:41:16.651Z,100603.78
2019-03-21T02:43:46.098Z,100604.89
2019-03-21T02:46:15.649Z,100603.47
2019-03-21T02:48:45.044Z,100601.74
2019-03-21T02:51:14.477Z,100605.32
2019-03-21T02:53:43.930Z,100599.94
2019-03-21T02:56:18.638Z,100595.63
2019-03-21T02:58:48.087Z,100596.87
2019-03-21T03:01:17.525Z,100596.95
2019-03-21T03:03:46.960Z,100597.60
2019-03-21T03:06:16.399Z,100598.77
2019-03-21T03:08:45.836Z,100597.03
2019-03-21T03:11:21.213Z,100594.07
2019-03-21T03:13:51.974Z,100596.30
2019-03-21T03:16:23.607Z,100590.72
2019-03-21T03:18:53.058Z,100590.02
2019-03-21T03:21:22.560Z,100595.41
2019-03-21T03:23:52.002Z,100591.50
2019-03-21T03:26:21.445Z,100596.17
2019-03-21T03:28:50.870Z,100593.33
2019-03-21T03:31:20.319Z,100593.42
2019-03-21T03:33:49.841Z,100587.42
2019-03-21T03:36:19.263Z,100596.42
2019-03-21T03:38:48.713Z,100593.03
2019-03-21T03:41:21.234Z,100596.77
2019-03-21T03:43:50.683Z,100598.70
2019-03-21T03:46:20.097Z,100600.63
2019-03-21T03:48:49.546Z,100597.09
2019-03-21T03:51:18.966Z,100594.64
2019-03-21T03:53:48.400Z,100592.09
2019-03-21T03:56:17.836Z,100593.88
2019-03-21T03:59:03.528Z,100599.18
2019-03-21T04:01:32.954Z,100599.74
2019-03-21T04:04:02.710Z,100597.03
2019-03-21T04:06:32.139Z,100606.63
2019-03-21T04:09:01.577Z,100607.07
2019-03-21T04:11:33.284Z,100607.25
2019-03-21T04:14:02.746Z,100606.44
2019-03-21T04:16:32.177Z,100600.45
2019-03-21T04:19:01.900Z,100596.91
2019-03-21T04:21:31.343Z,100601.62
2019-03-21T04:24:00.774Z,100604.00
2019-03-21T04:26:34.814Z,100602.23
2019-03-21T04:29:04.271Z,100598.19
2019-03-21T04:31:33.695Z,100593.55
2019-03-21T04:34:08.083Z,100596.70
2019-03-21T04:36:37.513Z,100591.30
2019-03-21T04:39:09.890Z,100593.39
2019-03-21T04:41:42.002Z,100591.22
2019-03-21T04:44:11.439Z,100583.79
2019-03-21T04:46:40.871Z,100579.89
2019-03-21T04:49:10.316Z,100579.45
2019-03-21T04:51:39.753Z,100578.26
2019-03-21T04:54:09.196Z,100577.34
2019-03-21T04:56:38.630Z,100576.37
2019-03-21T04:59:08.070Z,100575.94
2019-03-21T05:01:37.507Z,100576.72
2019-03-21T05:04:06.947Z,100584.36
2019-03-21T05:06:36.373Z,100575.09
2019-03-21T05:09:09.221Z,100576.72
2019-03-21T05:11:38.645Z,100576.29
2019-03-21T05:14:08.079Z,100576.63
2019-03-21T05:16:37.758Z,100575.61
2019-03-21T05:19:07.200Z,100577.53
2019-03-21T05:21:36.629Z,100574.80
2019-03-21T05:24:06.077Z,100573.88
2019-03-21T05:26:35.504Z,100573.25
2019-03-21T05:29:04.942Z,100575.12
2019-03-21T05:31:37.920Z,100580.92
2019-03-21T05:34:07.342Z,100585.98
2019-03-21T05:36:36.791Z,100584.06
2019-03-21T05:39:10.019Z,100577.99
2019-03-21T05:41:39.443Z,100586.34
2019-03-21T05:44:22.545Z,100583.91
2019-03-21T05:46:52.321Z,100590.05
2019-03-21T05:49:21.756Z,100593.02
2019-03-21T05:51:51.237Z,100588.31
2019-03-21T05:54:20.674Z,100585.98
2019-03-21T05:56:50.105Z,100596.98
2019-03-21T05:59:19.547Z,100597.58
2019-03-21T06:01:48.982Z,100594.79
2019-03-21T06:04:18.429Z,100599.91
2019-03-21T06:07:18.789Z,100604.73
2019-03-21T06:09:48.232Z,100606.19
2019-03-21T06:12:17.667Z,100613.97
2019-03-21T06:14:54.504Z,100606.80
2019-03-21T06:17:24.012Z,100610.37
2019-03-21T06:20:26.814Z,100611.97
2019-03-21T06:23:03.889Z,100605.06
2019-03-21T06:25:47.124Z,100606.89
2019-03-21T06:28:16.549Z,100610.52
2019-03-21T06:30:45.984Z,100613.17
2019-03-21T06:33:15.414Z,100619.95
2019-03-21T06:35:44.862Z,100617.04
2019-03-21T06:38:14.293Z,100618.19
2019-03-21T06:40:44.026Z,100623.59
2019-03-21T06:43:13.460Z,100621.67
2019-03-21T06:45:48.018Z,100629.97
2019-03-21T06:48:14.394Z,100627.23
2019-03-21T06:50:43.832Z,100629.09
2019-03-21T06:53:13.267Z,100632.55
2019-03-21T06:55:42.719Z,100624.56
2019-03-21T06:58:12.146Z,100620.45
2019-03-21T07:00:42.022Z,100622.20
2019-03-21T07:03:11.736Z,100621.44
2019-03-21T07:05:41.237Z,100624.05
2019-03-21T07:08:10.690Z,100621.97
2019-03-21T07:10:40.132Z,100622.52
2019-03-21T07:13:09.561Z,100620.13
2019-03-21T07:15:39.018Z,100623.59
2019-03-21T07:18:08.446Z,100621.17
2019-03-21T07:20:38.189Z,100619.08
2019-03-21T07:23:08.000Z,100628.52
2019-03-21T07:25:37.439Z,100627.35
2019-03-21T07:28:06.951Z,100626.50
2019-03-21T07:30:36.399Z,100621.11
2019-03-21T07:33:06.100Z,100625.94
2019-03-21T07:35:35.549Z,100625.26
2019-03-21T07:38:05.051Z,100619.27
2019-03-21T07:40:34.604Z,100621.56
2019-03-21T07:43:04.048Z,100616.95
2019-03-21T07:45:33.477Z,100615.33
2019-03-21T07:48:05.101Z,100619.66
2019-03-21T07:50:34.078Z,100615.44
2019-03-21T07:53:03.518Z,100612.46
2019-03-21T07:55:32.953Z,100603.52
2019-03-21T07:58:02.666Z,100610.90
2019-03-21T08:00:32.119Z,100608.74
2019-03-21T08:03:01.556Z,100609.61
2019-03-21T08:05:39.877Z,100599.86
2019-03-21T08:08:02.234Z,100598.19
2019-03-21T08:10:31.667Z,100602.50
2019-03-21T08:13:01.339Z,100598.27
2019-03-21T08:15:30.775Z,100601.28
2019-03-21T08:18:00.217Z,100603.48
2019-03-21T08:20:29.661Z,100599.25
2019-03-21T08:22:59.105Z,100596.35
2019-03-21T08:25:28.533Z,100596.37
2019-03-21T08:27:57.984Z,100592.58
2019-03-21T08:30:35.519Z,100589.63
2019-03-21T08:33:05.715Z,100587.99
2019-03-21T08:35:35.170Z,100588.03
2019-03-21T08:38:04.880Z,100589.77
2019-03-21T08:40:34.328Z,100582.11
2019-03-21T08:43:03.781Z,100583.39
2019-03-21T08:45:33.211Z,100582.11
2019-03-21T08:48:02.654Z,100576.59
2019-03-21T08:50:32.105Z,100576.59
2019-03-21T08:53:01.538Z,100578.73
2019-03-21T08:55:30.972Z,100570.63
2019-03-21T08:58:00.721Z,100574.06
2019-03-21T09:00:34.399Z,100568.08
2019-03-21T09:03:01.578Z,100574.06
2019-03-21T09:05:31.007Z,100571.05
2019-03-21T09:08:00.447Z,100566.33
2019-03-21T09:10:29.877Z,100567.19
2019-03-21T09:12:59.322Z,100570.18
2019-03-21T09:15:28.753Z,100559.48
2019-03-21T09:17:58.199Z,100563.28
2019-03-21T09:20:27.630Z,100566.24
2019-03-21T09:22:57.080Z,100552.91
2019-03-21T09:25:26.509Z,100556.70
2019-03-21T09:28:02.514Z,100546.34
2019-03-21T09:30:27.099Z,100551.00
2019-03-21T09:32:56.792Z,100543.19
2019-03-21T09:35:26.221Z,100550.40
2019-03-21T09:37:55.648Z,100540.42
2019-03-21T09:40:25.086Z,100548.40
2019-03-21T09:42:54.524Z,100540.14
2019-03-21T09:45:23.971Z,100538.36
2019-03-21T09:47:53.418Z,100536.44
2019-03-21T09:50:30.678Z,100535.03
2019-03-21T09:53:00.091Z,100527.67
2019-03-21T09:55:29.529Z,100529.73
2019-03-21T09:57:59.006Z,100530.53
2019-03-21T10:00:38.153Z,100529.97
2019-03-21T10:03:07.664Z,100529.16
2019-03-21T10:05:37.095Z,100530.32
2019-03-21T10:08:06.677Z,100523.65
2019-03-21T10:10:36.116Z,100519.92
2019-03-21T10:13:06.299Z,100521.44
2019-03-21T10:15:35.724Z,100510.88
2019-03-21T10:18:05.709Z,100506.61
2019-03-21T10:20:35.213Z,100500.66
2019-03-21T10:23:04.660Z,100497.29
2019-03-21T10:25:34.451Z,100501.17
2019-03-21T10:28:04.194Z,100495.52
2019-03-21T10:30:39.932Z,100490.45
2019-03-21T10:33:12.925Z,100485.22
2019-03-21T10:35:42.439Z,100483.02
2019-03-21T10:38:11.949Z,100477.19
2019-03-21T10:40:41.941Z,100475.97
2019-03-21T10:43:11.395Z,100468.80
2019-03-21T10:45:40.825Z,100464.41
2019-03-21T10:48:10.267Z,100463.44
2019-03-21T10:50:41.949Z,100458.13
2019-03-21T10:53:11.479Z,100453.89
2019-03-21T10:55:40.912Z,100452.88
2019-03-21T10:58:10.411Z,100453.48
2019-03-21T11:00:39.931Z,100446.31
2019-03-21T11:03:09.376Z,100443.53
2019-03-21T11:05:38.896Z,100438.06
2019-03-21T11:08:08.767Z,100444.88
2019-03-21T11:10:38.217Z,100441.67
2019-03-21T11:13:07.823Z,100442.67
2019-03-21T11:15:37.270Z,100440.84
2019-03-21T11:18:06.780Z,100438.19
2019-03-21T11:20:40.383Z,100433.25
2019-03-21T11:23:10.233Z,100431.83
2019-03-21T11:25:39.699Z,100435.02
2019-03-21T11:28:09.307Z,100432.04
2019-03-21T11:30:43.652Z,100425.70
2019-03-21T11:33:13.244Z,100420.70
2019-03-21T11:35:42.754Z,100416.61
2019-03-21T11:38:12.308Z,100412.91
2019-03-21T11:40:41.842Z,100408.50
2019-03-21T11:43:11.808Z,100410.61
2019-03-21T11:45:41.501Z,100414.36
2019-03-21T11:48:10.930Z,100413.70
2019-03-21T11:50:40.408Z,100407.16
2019-03-21T11:53:09.849Z,100405.72
2019-03-21T11:55:39.316Z,100395.40
2019-03-21T11:58:08.742Z,100397.41
2019-03-21T12:00:44.436Z,100385.93
2019-03-21T12:03:09.435Z,100377.67
2019-03-21T12:05:38.888Z,100373.71
2019-03-21T12:08:08.602Z,100369.45
2019-03-21T12:10:38.056Z,100371.00
2019-03-21T12:13:07.500Z,100359.06
2019-03-21T12:15:36.956Z,100357.81
2019-03-21T12:18:06.405Z,100360.64
2019-03-21T12:20:35.933Z,100352.31
2019-03-21T12:23:06.267Z,100349.50
2019-03-21T12:25:35.734Z,100346.72
2019-03-21T12:28:05.178Z,100341.63
2019-03-21T12:30:37.826Z,100334.70
2019-03-21T12:33:07.882Z,100332.47
2019-03-21T12:35:37.326Z,100331.72
2019-03-21T12:38:07.476Z,100330.23
2019-03-21T12:40:37.031Z,100328.28
2019-03-21T12:43:06.912Z,100320.88
2019-03-21T12:45:36.372Z,100320.28
2019-03-21T12:48:06.369Z,100314.93
2019-03-21T12:50:35.886Z,100315.41
2019-03-21T12:53:05.402Z,100309.03
2019-03-21T12:55:35.259Z,100308.25
2019-03-21T12:58:05.852Z,100304.87
2019-03-21T13:00:39.969Z,100306.44
2019-03-21T13:03:09.500Z,100301.30
2019-03-21T13:05:39.036Z,100298.06
2019-03-21T13:08:08.553Z,100289.32
2019-03-21T13:10:38.005Z,100280.91
2019-03-21T13:13:08.409Z,100282.22
2019-03-21T13:15:38.012Z,100280.02
2019-03-21T13:18:07.975Z,100280.39
2019-03-21T13:20:37.492Z,100279.89
2019-03-21T13:23:07.489Z,100272.79
2019-03-21T13:25:37.235Z,100271.08
2019-03-21T13:28:06.952Z,100269.84
2019-03-21T13:30:36.846Z,100274.52
2019-03-21T13:33:06.365Z,100275.17
2019-03-21T13:35:35.965Z,100265.22
2019-03-21T13:38:05.734Z,100266.85
2019-03-21T13:40:35.208Z,100262.01
2019-03-21T13:43:04.927Z,100261.50
2019-03-21T13:45:34.382Z,100255.64
2019-03-21T13:48:03.897Z,100244.95
2019-03-21T13:50:33.354Z,100249.78
2019-03-21T13:53:05.104Z,100242.09
2019-03-21T13:55:34.124Z,100248.66
2019-03-21T13:58:03.639Z,100240.69
2019-03-21T14:00:33.084Z,100247.02
2019-03-21T14:03:02.615Z,100238.74
2019-03-21T14:05:32.063Z,100240.22
2019-03-21T14:08:01.522Z,100236.42
2019-03-21T14:10:32.312Z,100234.12
2019-03-21T14:13:01.919Z,100216.23
2019-03-21T14:15:31.357Z,100228.80
2019-03-21T14:18:01.095Z,100229.62
2019-03-21T14:20:30.544Z,100228.31
2019-03-21T14:22:59.994Z,100222.34
2019-03-21T14:25:29.534Z,100227.38
2019-03-21T14:27:59.409Z,100220.26
2019-03-21T14:30:28.962Z,100218.77
2019-03-21T14:32:58.733Z,100211.84
2019-03-21T14:35:28.220Z,100212.50
2019-03-21T14:37:57.673Z,100215.80
2019-03-21T14:40:27.136Z,100214.72
2019-03-21T14:42:56.590Z,100208.49
2019-03-21T14:45:26.048Z,100217.53
2019-03-21T14:47:55.503Z,100207.49
2019-03-21T14:50:24.956Z,100208.90
2019-03-21T14:52:54.408Z,100210.18
2019-03-21T14:55:23.870Z,100209.81
2019-03-21T14:57:53.306Z,100201.44
2019-03-21T15:00:22.743Z,100199.97
2019-03-21T15:02:52.243Z,100196.83
2019-03-21T15:05:21.697Z,100197.84
2019-03-21T15:07:51.139Z,100202.14
2019-03-21T15:10:20.653Z,100196.47
2019-03-21T15:12:50.146Z,100195.98
2019-03-21T15:15:19.625Z,100196.14
2019-03-21T15:17:49.075Z,100192.38
2019-03-21T15:20:18.796Z,100198.24
2019-03-21T15:22:48.251Z,100197.30
2019-03-21T15:25:19.165Z,100187.63
2019-03-21T15:27:49.659Z,100193.34
2019-03-21T15:30:22.194Z,100187.80
2019-03-21T15:32:51.830Z,100183.31
2019-03-21T15:35:21.745Z,100187.34
2019-03-21T15:37:51.186Z,100186.78
2019-03-21T15:40:20.636Z,100184.38
2019-03-21T15:42:50.081Z,100188.99
2019-03-21T15:45:23.910Z,100184.52
2019-03-21T15:47:50.890Z,100189.47
2019-03-21T15:50:38.791Z,100183.76
2019-03-21T15:53:09.118Z,100186.16
2019-03-21T15:55:38.563Z,100188.23
2019-03-21T15:58:08.023Z,100179.41
2019-03-21T16:00:43.226Z,100186.66
2019-03-21T16:03:13.790Z,100179.80
2019-03-21T16:05:43.316Z,100185.41
2019-03-21T16:08:12.771Z,100183.01
2019-03-21T16:10:42.222Z,100175.92
2019-03-21T16:13:11.678Z,100176.22
2019-03-21T16:15:41.124Z,100177.19
2019-03-21T16:18:10.569Z,100175.63
2019-03-21T16:20:40.098Z,100178.30
2019-03-21T16:23:09.535Z,100177.02
2019-03-21T16:25:39.008Z,100179.62
2019-03-21T16:28:08.452Z,100183.37
2019-03-21T16:30:37.920Z,100184.91
2019-03-21T16:33:07.374Z,100181.65
2019-03-21T16:35:36.819Z,100179.89
2019-03-21T16:38:06.325Z,100176.44
2019-03-21T16:40:35.789Z,100183.95
2019-03-21T16:43:05.935Z,100186.64
2019-03-21T16:45:35.697Z,100186.76
2019-03-21T16:48:05.624Z,100187.50
2019-03-21T16:50:35.258Z,100187.14
2019-03-21T16:53:04.709Z,100188.16
2019-03-21T16:55:34.160Z,100190.36
2019-03-21T16:58:03.611Z,100194.06
2019-03-21T17:00:33.892Z,100201.45
2019-03-21T17:03:03.323Z,100192.53
2019-03-21T17:05:32.790Z,100191.56
2019-03-21T17:08:11.209Z,100197.63
2019-03-21T17:10:33.400Z,100195.48
2019-03-21T17:13:04.744Z,100197.28
2019-03-21T17:15:34.016Z,100200.95
2019-03-21T17:18:03.482Z,100204.38
2019-03-21T17:20:33.271Z,100206.91
2019-03-21T17:23:02.709Z,100201.42
2019-03-21T17:25:32.159Z,100205.70
2019-03-21T17:28:01.590Z,100213.86
2019-03-21T17:30:31.045Z,100206.13
2019-03-21T17:33:02.117Z,100211.31
2019-03-21T17:35:31.539Z,100213.09
2019-03-21T17:38:00.971Z,100200.94
2019-03-21T17:40:30.423Z,100206.77
2019-03-21T17:42:59.865Z,100209.72
2019-03-21T17:45:29.309Z,100216.43
2019-03-21T17:47:58.750Z,100215.33
2019-03-21T17:50:28.213Z,100219.03
2019-03-21T17:52:57.634Z,100222.34
2019-03-21T17:55:27.087Z,100218.70
2019-03-21T17:57:56.527Z,100225.98
2019-03-21T18:00:31.781Z,100223.73
2019-03-21T18:03:01.367Z,100224.50
2019-03-21T18:05:30.814Z,100219.96
2019-03-21T18:08:00.254Z,100231.16
2019-03-21T18:10:36.064Z,100226.48
2019-03-21T18:13:06.033Z,100232.94
2019-03-21T18:15:35.486Z,100238.34
2019-03-21T18:18:05.190Z,100240.37
2019-03-21T18:20:34.631Z,100247.23
2019-03-21T18:23:04.070Z,100248.67
2019-03-21T18:25:33.520Z,100249.81
2019-03-21T18:28:02.973Z,100261.69
2019-03-21T18:30:32.858Z,100254.94
2019-03-21T18:33:02.671Z,100258.64
2019-03-21T18:35:32.130Z,100262.69
2019-03-21T18:38:01.637Z,100268.44
2019-03-21T18:40:31.087Z,100266.55
2019-03-21T18:43:00.528Z,100269.53
2019-03-21T18:45:29.981Z,100276.50
2019-03-21T18:47:59.421Z,100283.63
2019-03-21T18:50:28.875Z,100285.57
2019-03-21T18:52:58.306Z,100290.10
2019-03-21T18:55:27.750Z,100292.22
2019-03-21T18:57:57.194Z,100290.74
2019-03-21T19:00:26.636Z,100291.58
2019-03-21T19:02:56.077Z,100294.84
2019-03-21T19:05:25.535Z,100290.05
2019-03-21T19:07:54.976Z,100291.78
2019-03-21T19:10:24.430Z,100289.09
2019-03-21T19:12:53.871Z,100290.24
2019-03-21T19:15:23.311Z,100293.67
2019-03-21T19:17:53.071Z,100285.48
2019-03-21T19:20:22.531Z,100288.38
2019-03-21T19:22:51.991Z,100291.88
2019-03-21T19:25:21.696Z,100289.33
2019-03-21T19:27:51.141Z,100297.08
2019-03-21T19:30:21.713Z,100304.19
2019-03-21T19:32:51.157Z,100304.03
2019-03-21T19:35:20.666Z,100304.69
2019-03-21T19:37:50.099Z,100307.35
2019-03-21T19:40:22.266Z,100306.17
2019-03-21T19:42:52.025Z,100304.63
2019-03-21T19:45:21.546Z,100304.28
2019-03-21T19:47:50.994Z,100299.72
2019-03-21T19:50:21.923Z,100307.16
2019-03-21T19:52:51.356Z,100301.66
2019-03-21T19:55:30.162Z,100303.92
2019-03-21T19:57:51.969Z,100301.97
2019-03-21T20:00:23.142Z,100306.52
2019-03-21T20:02:52.584Z,100305.26
2019-03-21T20:05:22.099Z,100312.73
2019-03-21T20:07:51.548Z,100317.77
2019-03-21T20:10:22.335Z,100316.66
2019-03-21T20:12:51.777Z,100317.14
2019-03-21T20:15:21.393Z,100318.96
2019-03-21T20:17:50.836Z,100313.95
2019-03-21T20:20:20.343Z,100316.59
2019-03-21T20:22:49.801Z,100316.78
2019-03-21T20:25:19.232Z,100317.76
2019-03-21T20:27:48.679Z,100319.88
2019-03-21T20:30:21.200Z,100322.12
2019-03-21T20:32:50.713Z,100322.17
2019-03-21T20:35:20.144Z,100332.09
2019-03-21T20:37:49.605Z,100327.43
2019-03-21T20:40:20.783Z,100329.25
2019-03-21T20:42:50.295Z,100332.89
2019-03-21T20:45:20.984Z,100332.34
2019-03-21T20:47:50.422Z,100330.73
2019-03-21T20:50:20.031Z,100333.80
2019-03-21T20:52:49.487Z,100332.54
2019-03-21T20:55:18.930Z,100329.08
2019-03-21T20:57:48.608Z,100326.91
2019-03-21T21:00:22.805Z,100327.05
2019-03-21T21:02:53.587Z,100324.81
2019-03-21T21:05:23.469Z,100324.02
2019-03-21T21:07:53.090Z,100324.08
2019-03-21T21:10:22.528Z,100325.41
2019-03-21T21:12:51.974Z,100321.35
2019-03-21T21:15:21.408Z,100318.96
2019-03-21T21:17:50.850Z,100315.23
2019-03-21T21:20:20.361Z,100311.77
2019-03-21T21:22:49.801Z,100314.32
2019-03-21T21:25:19.233Z,100311.28
2019-03-21T21:27:50.242Z,100314.34
2019-03-21T21:30:21.919Z,100310.99
2019-03-21T21:32:51.425Z,100317.89
2019-03-21T21:35:20.851Z,100326.17
2019-03-21T21:37:50.286Z,100322.09
2019-03-21T21:40:19.782Z,100324.30
2019-03-21T21:42:49.216Z,100326.17
2019-03-21T21:45:19.427Z,100330.52
2019-03-21T21:47:48.942Z,100324.09
2019-03-21T21:50:19.305Z,100325.33
2019-03-21T21:52:48.827Z,100328.67
2019-03-21T21:55:18.259Z,100328.60
2019-03-21T21:57:47.704Z,100330.41
2019-03-21T22:00:22.037Z,100327.16
2019-03-21T22:02:51.748Z,100328.89
2019-03-21T22:05:21.252Z,100328.59
2019-03-21T22:07:50.695Z,100330.82
2019-03-21T22:10:20.426Z,100334.70
2019-03-21T22:12:49.865Z,100333.89
2019-03-21T22:15:19.464Z,100333.91
2019-03-21T22:17:49.185Z,100331.77
2019-03-21T22:20:18.683Z,100334.74
2019-03-21T22:22:48.189Z,100337.67
2019-03-21T22:25:17.622Z,100331.78
2019-03-21T22:27:47.062Z,100335.67
2019-03-21T22:30:19.575Z,100338.23
2019-03-21T22:32:49.085Z,100340.00
2019-03-21T22:35:18.520Z,100342.59
2019-03-21T22:37:47.953Z,100328.87
2019-03-21T22:40:19.298Z,100330.59
2019-03-21T22:42:48.743Z,100333.59
2019-03-21T22:45:18.690Z,100324.17
2019-03-21T22:47:50.475Z,100330.20
2019-03-21T22:50:19.442Z,100326.81
2019-03-21T22:52:48.965Z,100325.11
2019-03-21T22:55:18.419Z,100329.84
2019-03-21T22:57:47.871Z,100325.57
2019-03-21T23:00:29.823Z,100327.70
2019-03-21T23:02:59.278Z,100324.70
2019-03-21T23:05:28.704Z,100325.16
2019-03-21T23:07:58.184Z,100320.88
2019-03-21T23:10:27.605Z,100315.75
2019-03-21T23:12:57.055Z,100319.17
2019-03-21T23:15:26.487Z,100310.63
2019-03-21T23:17:55.929Z,100315.34
2019-03-21T23:20:25.385Z,100312.36
2019-03-21T23:22:54.812Z,100314.52
2019-03-21T23:25:24.251Z,100316.65
2019-03-21T23:27:53.685Z,100314.53
2019-03-21T23:30:23.130Z,100314.54
2019-03-21T23:32:52.574Z,100314.11
2019-03-21T23:35:22.016Z,100320.97
2019-03-21T23:37:51.539Z,100323.53
2019-03-21T23:40:20.971Z,100317.10
2019-03-21T23:42:50.416Z,100317.53
2019-03-21T23:45:20.246Z,100316.25
2019-03-21T23:47:49.958Z,100319.27
2019-03-21T23:50:19.393Z,100305.58
2019-03-21T23:52:48.840Z,100309.02
2019-03-21T23:55:18.280Z,100311.57
2019-03-21T23:57:47.728Z,100311.13
